Time;durP1;ratioP1;P1;durP2;ratioP2;P2;SDS_P1;SDS_P2;PMS_P1;PMS_P2;Temp;Humidity;BMP_temperature;BMP_pressure;BME280_temperature;BME280_humidity;BME280_pressure;Samples;Min_cycle;Max_cycle;Signal;HPM_P1;HPM_P2
2023/04/25 00:02:18;;;;;;;;;2.00;2.00;;;;;11.62;65.36;100837.75;5100341;27;45411;-44
2023/04/25 00:04:43;;;;;;;;;3.67;3.67;;;;;11.52;64.69;100837.00;5099691;27;46098;-42
2023/04/25 00:07:09;;;;;;;;;5.33;3.00;;;;;11.50;64.83;100838.94;5099759;27;45401;-44
2023/04/25 00:09:34;;;;;;;;;4.00;4.00;;;;;11.45;65.25;100838.56;5100042;27;45322;-46
2023/04/25 00:12:01;;;;;;;;;6.00;3.67;;;;;11.41;65.33;100839.84;5099393;27;45568;-44
2023/04/25 00:14:27;;;;;;;;;6.33;6.00;;;;;11.37;65.08;100833.16;5099775;27;46221;-46
2023/04/25 00:16:53;;;;;;;;;7.00;5.00;;;;;11.34;65.54;100842.31;5099543;27;45499;-43
2023/04/25 00:19:19;;;;;;;;;6.33;4.00;;;;;11.29;65.68;100836.56;5099312;27;45279;-46
2023/04/25 00:21:46;;;;;;;;;5.67;3.00;;;;;11.24;66.50;100831.69;5081343;27;45352;-45
2023/04/25 00:24:12;;;;;;;;;3.00;3.00;;;;;11.12;66.58;100824.03;5099423;27;47349;-42
2023/04/25 00:26:37;;;;;;;;;5.67;5.00;;;;;11.13;67.12;100831.06;5099301;27;45488;-42
2023/04/25 00:29:03;;;;;;;;;9.00;6.00;;;;;11.13;66.51;100837.22;5099750;27;45704;-42
2023/04/25 00:31:28;;;;;;;;;5.67;5.00;;;;;11.06;67.03;100828.16;5099707;27;45318;-41
2023/04/25 00:33:54;;;;;;;;;6.00;3.33;;;;;10.90;67.31;100812.81;5099430;27;45221;-44
2023/04/25 00:36:19;;;;;;;;;12.33;7.00;;;;;10.99;67.27;100835.88;5099258;27;45480;-42
2023/04/25 00:38:45;;;;;;;;;4.67;4.67;;;;;10.97;67.24;100831.69;5099467;27;45299;-41
2023/04/25 00:41:10;;;;;;;;;6.00;4.00;;;;;10.91;67.59;100834.94;5098542;27;45256;-41
2023/04/25 00:43:37;;;;;;;;;8.00;6.00;;;;;10.89;67.24;100835.09;5098985;27;45969;-43
2023/04/25 00:46:02;;;;;;;;;3.00;3.00;;;;;10.86;67.52;100834.53;5099181;27;45356;-41
2023/04/25 00:48:28;;;;;;;;;7.33;6.33;;;;;10.76;67.58;100828.44;5099282;27;45358;-41
2023/04/25 00:50:56;;;;;;;;;8.67;7.00;;;;;10.86;67.53;100827.38;5099413;27;45512;-41
2023/04/25 00:53:23;;;;;;;;;9.67;5.33;;;;;10.87;67.49;100841.53;5098987;27;46063;-41
2023/04/25 00:55:50;;;;;;;;;6.00;4.00;;;;;10.76;67.53;100823.09;5098952;27;45300;-42
2023/04/25 00:58:17;;;;;;;;;4.00;4.00;;;;;10.84;67.30;100833.84;5099114;27;45289;-42
2023/04/25 01:00:43;;;;;;;;;10.33;7.33;;;;;10.90;67.59;100841.25;5099272;27;45196;-42
2023/04/25 01:03:10;;;;;;;;;6.00;5.00;;;;;10.95;67.26;100845.13;5098753;27;45423;-42
2023/04/25 01:05:35;;;;;;;;;6.67;5.33;;;;;10.98;66.88;100833.38;5098803;27;45402;-40
2023/04/25 01:08:01;;;;;;;;;6.67;4.67;;;;;11.01;66.53;100833.09;5098947;27;45466;-41
2023/04/25 01:10:26;;;;;;;;;6.00;4.33;;;;;11.04;66.61;100832.78;5099238;27;45360;-41
2023/04/25 01:12:52;;;;;;;;;4.33;3.00;;;;;11.10;66.66;100831.34;5098759;27;46178;-42
2023/04/25 01:15:17;;;;;;;;;4.67;2.00;;;;;11.12;66.41;100832.03;5098608;27;45285;-41
2023/04/25 01:17:43;;;;;;;;;6.00;4.67;;;;;11.14;66.03;100838.06;5098995;27;45346;-42
2023/04/25 01:20:10;;;;;;;;;4.00;3.00;;;;;11.14;65.89;100830.91;5098753;27;45329;-41
2023/04/25 01:22:36;;;;;;;;;6.33;5.33;;;;;11.16;66.12;100831.59;5098388;27;47149;-42
2023/04/25 01:25:02;;;;;;;;;7.00;4.67;;;;;11.17;65.70;100824.47;5098444;27;45305;-42
2023/04/25 01:27:27;;;;;;;;;10.67;6.00;;;;;11.06;66.07;100803.34;5098486;27;45234;-43
2023/04/25 01:29:55;;;;;;;;;9.00;5.67;;;;;11.17;66.40;100829.78;5098686;27;45283;-41
2023/04/25 01:32:23;;;;;;;;;8.33;7.00;;;;;11.15;66.58;100819.25;5098239;27;46302;-42
2023/04/25 01:34:48;;;;;;;;;7.33;7.33;;;;;11.14;66.54;100817.59;5098226;27;45412;-42
2023/04/25 01:37:14;;;;;;;;;8.33;7.00;;;;;11.15;66.71;100827.25;5098474;27;45358;-42
2023/04/25 01:39:40;;;;;;;;;7.33;4.00;;;;;10.98;66.52;100809.41;5098558;27;45260;-41
2023/04/25 01:42:06;;;;;;;;;6.33;6.33;;;;;11.01;67.08;100826.94;5098195;27;46298;-42
2023/04/25 01:44:31;;;;;;;;;10.67;6.33;;;;;10.95;67.11;100826.50;5079737;27;45437;-42
2023/04/25 01:46:57;;;;;;;;;12.33;8.00;;;;;10.84;66.94;100809.91;5098347;27;45414;-41
2023/04/25 01:49:23;;;;;;;;;7.00;6.67;;;;;10.85;67.36;100827.53;5098520;27;45572;-41
2023/04/25 01:51:48;;;;;;;;;8.33;5.00;;;;;10.80;67.12;100829.81;5097700;27;46943;-41
2023/04/25 01:54:14;;;;;;;;;5.67;5.67;;;;;10.78;67.75;100829.09;5098137;27;45309;-41
2023/04/25 01:56:40;;;;;;;;;11.00;7.00;;;;;10.74;67.13;100825.91;5098220;27;45737;-41
2023/04/25 01:59:05;;;;;;;;;8.00;7.00;;;;;10.73;67.47;100816.25;5098251;27;45476;-44
2023/04/25 02:01:31;;;;;;;;;8.00;7.33;;;;;10.76;67.31;100826.59;5097933;27;45456;-43
2023/04/25 02:03:57;;;;;;;;;6.00;4.00;;;;;10.78;67.75;100832.59;5097881;27;45467;-40
2023/04/25 02:06:23;;;;;;;;;9.67;7.33;;;;;10.81;67.71;100834.97;5098160;27;45320;-41
2023/04/25 02:08:48;;;;;;;;;11.67;7.67;;;;;10.83;67.70;100842.81;5098092;27;45201;-41
2023/04/25 02:11:13;;;;;;;;;6.00;6.00;;;;;10.78;67.74;100835.25;5097706;27;45397;-41
2023/04/25 02:13:39;;;;;;;;;12.00;7.00;;;;;10.84;67.92;100855.97;5097884;27;45236;-42
2023/04/25 02:16:04;;;;;;;;;16.00;7.67;;;;;10.87;67.56;100845.06;5097924;27;45261;-41
2023/04/25 02:18:31;;;;;;;;;7.33;7.00;;;;;10.91;67.52;100840.25;5098279;27;45478;-42
2023/04/25 02:20:56;;;;;;;;;8.00;6.33;;;;;10.89;67.65;100837.75;5097417;27;46169;-42
2023/04/25 02:23:21;;;;;;;;;5.33;5.33;;;;;10.91;67.95;100842.91;5097553;27;45453;-41
2023/04/25 02:25:47;;;;;;;;;8.33;6.00;;;;;10.94;67.79;100838.13;5097889;27;45243;-42
2023/04/25 02:28:12;;;;;;;;;17.00;8.00;;;;;10.96;67.21;100851.31;5098008;27;45476;-43
2023/04/25 02:30:37;;;;;;;;;12.33;9.00;;;;;10.94;67.30;100842.63;5097573;27;46309;-41
2023/04/25 02:33:03;;;;;;;;;12.33;8.33;;;;;10.95;67.18;100839.81;5097526;27;45417;-40
2023/04/25 02:35:28;;;;;;;;;11.00;11.00;;;;;10.97;67.43;100837.03;5097805;27;45317;-41
2023/04/25 02:37:53;;;;;;;;;10.00;8.67;;;;;10.97;67.61;100837.03;5097677;27;45561;-42
2023/04/25 02:40:19;;;;;;;;;14.67;9.00;;;;;10.97;67.11;100840.53;5097412;27;45405;-42
2023/04/25 02:42:45;;;;;;;;;6.33;6.33;;;;;10.97;67.16;100843.19;5096815;27;45242;-41
2023/04/25 02:45:11;;;;;;;;;8.00;6.67;;;;;10.97;67.19;100842.34;5097496;27;45497;-42
2023/04/25 02:47:36;;;;;;;;;9.67;7.00;;;;;10.97;66.74;100850.34;5097716;27;45300;-41
2023/04/25 02:50:02;;;;;;;;;12.33;9.33;;;;;10.96;67.12;100854.81;5097418;27;45341;-41
2023/04/25 02:52:27;;;;;;;;;11.67;8.00;;;;;10.95;66.98;100852.28;5097458;27;45439;-41
2023/04/25 02:54:52;;;;;;;;;8.67;7.00;;;;;10.94;66.91;100854.09;5078409;27;45355;-39
2023/04/25 02:57:18;;;;;;;;;9.67;7.67;;;;;10.96;67.76;100856.66;5097583;27;45335;-43
2023/04/25 02:59:43;;;;;;;;;12.00;11.33;;;;;10.97;67.69;100868.97;5097290;27;45981;-40
2023/04/25 03:02:09;;;;;;;;;11.00;9.00;;;;;10.97;67.52;100863.63;5097246;27;45374;-40
2023/04/25 03:04:34;;;;;;;;;10.33;8.00;;;;;10.95;67.20;100855.78;5100046;27;45271;-39
2023/04/25 03:06:59;;;;;;;;;9.00;7.00;;;;;10.95;67.35;100869.09;5101081;27;45285;-40
2023/04/25 03:09:25;;;;;;;;;13.67;10.00;;;;;10.93;66.78;100859.59;5100263;27;45261;-41
2023/04/25 03:11:50;;;;;;;;;8.33;7.33;;;;;10.89;67.04;100863.53;5099778;27;45242;-40
2023/04/25 03:14:15;;;;;;;;;12.33;9.67;;;;;10.76;66.96;100839.06;5100877;27;45155;-40
2023/04/25 03:16:41;;;;;;;;;11.67;11.00;;;;;10.81;67.28;100853.59;5101106;27;45314;-41
2023/04/25 03:19:06;;;;;;;;;10.67;7.00;;;;;10.67;67.38;100843.44;5100541;27;45287;-40
2023/04/25 03:21:33;;;;;;;;;13.00;10.00;;;;;10.67;67.89;100849.59;5100469;27;45566;-42
2023/04/25 03:24:01;;;;;;;;;10.67;7.67;;;;;10.58;67.98;100842.50;5100819;27;45392;-42
2023/04/25 03:26:27;;;;;;;;;7.50;7.00;;;;;10.59;67.32;100854.78;5100694;27;45607;-39
2023/04/25 03:28:52;;;;;;;;;15.00;7.00;;;;;10.19;67.53;100807.13;5100169;27;47026;-40
2023/04/25 03:31:17;;;;;;;;;12.33;9.67;;;;;10.55;68.17;100857.91;5100344;27;45275;-39
2023/04/25 03:33:43;;;;;;;;;10.67;9.33;;;;;10.57;67.79;100850.59;5100223;27;45453;-40
2023/04/25 03:36:08;;;;;;;;;8.00;8.00;;;;;10.58;68.06;100855.78;5100743;27;45369;-40
2023/04/25 03:38:33;;;;;;;;;16.00;10.67;;;;;10.56;67.77;100847.09;5099995;27;45455;-41
2023/04/25 03:40:59;;;;;;;;;11.33;7.67;;;;;10.55;68.00;100847.25;5100026;27;45397;-41
2023/04/25 03:43:24;;;;;;;;;17.00;11.00;;;;;10.47;68.39;100850.63;5100180;27;45189;-41
2023/04/25 03:45:50;;;;;;;;;11.00;11.00;;;;;10.39;68.35;100850.50;5100379;27;45352;-40
2023/04/25 03:48:16;;;;;;;;;9.33;7.00;;;;;10.33;68.73;100862.56;5100092;27;46082;-43
2023/04/25 03:50:41;;;;;;;;;11.67;7.33;;;;;10.26;68.80;100848.16;5100202;27;45306;-44
2023/04/25 03:53:06;;;;;;;;;6.67;6.67;;;;;10.25;69.01;100854.44;5100063;27;45202;-42
2023/04/25 03:55:31;;;;;;;;;9.00;7.00;;;;;10.20;68.79;100856.66;5100457;27;45201;-47
2023/04/25 03:58:00;;;;;;;;;14.67;10.00;;;;;10.15;68.99;100859.72;5099742;27;45673;-45
2023/04/25 04:00:25;;;;;;;;;13.00;10.00;;;;;10.14;69.48;100859.88;5099895;27;45313;-46
2023/04/25 04:02:51;;;;;;;;;13.00;9.67;;;;;10.04;69.18;100843.94;5100082;27;45265;-44
2023/04/25 04:05:16;;;;;;;;;10.67;8.67;;;;;10.17;68.96;100864.91;5099965;27;45475;-45
2023/04/25 04:07:42;;;;;;;;;12.00;11.00;;;;;10.18;69.27;100856.78;5099654;27;47327;-45
2023/04/25 04:10:11;;;;;;;;;11.00;10.00;;;;;10.20;69.31;100857.50;5099634;27;45479;-45
2023/04/25 04:12:38;;;;;;;;;12.00;9.00;;;;;10.23;68.98;100862.50;5099772;27;45284;-45
2023/04/25 04:15:05;;;;;;;;;14.00;8.00;;;;;10.27;69.22;100865.75;5100188;27;45390;-42
2023/04/25 04:17:31;;;;;;;;;10.33;10.33;;;;;10.30;69.01;100860.16;5099284;27;47032;-42
2023/04/25 04:19:56;;;;;;;;;11.33;6.67;;;;;10.32;68.79;100866.16;5099467;27;45313;-43
2023/04/25 04:22:22;;;;;;;;;11.67;8.00;;;;;10.35;68.90;100867.72;5099617;27;45785;-43
2023/04/25 04:24:49;;;;;;;;;20.00;12.00;;;;;10.35;68.69;100867.72;5099831;27;45402;-46
2023/04/25 04:27:17;;;;;;;;;15.33;9.33;;;;;10.36;68.86;100866.72;5099256;27;47101;-43
2023/04/25 04:29:42;;;;;;;;;17.33;9.33;;;;;10.31;68.92;100867.16;5099177;27;45310;-45
2023/04/25 04:32:08;;;;;;;;;13.67;11.67;;;;;10.40;68.44;100882.25;5099516;27;45299;-44
2023/04/25 04:34:34;;;;;;;;;9.33;8.67;;;;;10.39;68.28;100888.56;5099656;27;45324;-43
2023/04/25 04:37:00;;;;;;;;;8.67;8.67;;;;;10.30;68.59;100876.13;5099195;27;47022;-43
2023/04/25 04:39:25;;;;;;;;;16.00;10.33;;;;;10.42;68.35;100895.44;5099075;27;45259;-43
2023/04/25 04:41:51;;;;;;;;;14.00;12.00;;;;;10.44;68.61;100893.47;5099318;27;45442;-42
2023/04/25 04:44:16;;;;;;;;;12.00;10.33;;;;;10.35;68.02;100884.50;5099259;27;45318;-42
2023/04/25 04:46:42;;;;;;;;;17.67;11.00;;;;;10.44;68.54;100896.94;5099056;27;46286;-43
2023/04/25 04:49:12;;;;;;;;;8.33;8.33;;;;;10.43;68.44;100902.41;5099136;27;45334;-44
2023/04/25 04:51:38;;;;;;;;;12.33;7.67;;;;;10.44;68.45;100904.94;5099380;27;45321;-43
2023/04/25 04:54:04;;;;;;;;;11.67;9.00;;;;;10.43;68.21;100911.22;5099222;27;45451;-45
2023/04/25 04:56:30;;;;;;;;;15.00;11.33;;;;;10.41;68.57;100912.38;5098955;27;46616;-45
2023/04/25 04:58:56;;;;;;;;;12.00;9.67;;;;;10.30;68.36;100891.25;5098920;27;45429;-45
2023/04/25 05:01:22;;;;;;;;;14.67;11.67;;;;;10.39;68.62;100919.63;5098729;27;45423;-44
2023/04/25 05:03:47;;;;;;;;;10.00;10.00;;;;;10.39;68.80;100923.13;5099233;27;45308;-44
2023/04/25 05:06:13;;;;;;;;;18.33;12.00;;;;;10.42;68.74;100930.00;5098705;27;45835;-44
2023/04/25 05:08:38;;;;;;;;;13.67;13.00;;;;;10.43;69.00;100929.84;5098518;27;45374;-43
2023/04/25 05:11:03;;;;;;;;;12.67;9.00;;;;;10.35;68.56;100916.41;5099075;27;45267;-43
2023/04/25 05:13:29;;;;;;;;;15.00;11.00;;;;;10.47;69.07;100925.94;5098787;27;45304;-44
2023/04/25 05:15:54;;;;;;;;;18.00;9.67;;;;;10.39;68.88;100920.47;5098746;27;47030;-44
2023/04/25 05:18:20;;;;;;;;;16.00;13.00;;;;;10.51;68.96;100931.81;5098682;27;45333;-45
2023/04/25 05:20:45;;;;;;;;;15.00;10.00;;;;;10.51;68.70;100939.78;5098606;27;45305;-41
2023/04/25 05:23:10;;;;;;;;;11.67;8.67;;;;;10.53;68.63;100943.13;5098402;27;45675;-42
2023/04/25 05:25:36;;;;;;;;;20.00;13.00;;;;;10.53;68.67;100953.78;5098347;27;46064;-47
2023/04/25 05:28:01;;;;;;;;;16.67;11.67;;;;;10.54;68.74;100960.78;5098362;27;45173;-46
2023/04/25 05:30:27;;;;;;;;;14.33;11.67;;;;;10.56;68.76;100957.97;5098556;27;45379;-45
2023/04/25 05:32:52;;;;;;;;;11.67;11.00;;;;;10.59;68.77;100966.53;5098827;27;45397;-46
2023/04/25 05:35:17;;;;;;;;;14.67;11.00;;;;;10.62;68.94;100962.72;5098240;27;48541;-44
2023/04/25 05:37:43;;;;;;;;;19.67;16.67;;;;;10.64;68.62;100969.59;5098302;27;45431;-45
2023/04/25 05:40:09;;;;;;;;;20.67;12.33;;;;;10.66;68.93;100977.44;5098594;27;45736;-42
2023/04/25 05:42:34;;;;;;;;;17.33;13.33;;;;;10.65;68.90;100978.41;5098535;27;45283;-46
2023/04/25 05:45:00;;;;;;;;;20.00;15.33;;;;;10.60;68.94;100970.84;5097985;27;45449;-43
2023/04/25 05:47:26;;;;;;;;;14.33;12.00;;;;;10.70;69.05;100995.66;5098212;27;45964;-44
2023/04/25 05:49:51;;;;;;;;;17.67;12.67;;;;;10.74;68.89;101002.38;5098379;27;45320;-46
2023/04/25 05:52:16;;;;;;;;;21.33;15.33;;;;;10.76;68.49;101004.03;5098677;27;45509;-44
2023/04/25 05:54:42;;;;;;;;;14.33;13.67;;;;;10.76;68.66;101007.53;5098001;27;45328;-41
2023/04/25 05:57:07;;;;;;;;;17.33;13.33;;;;;10.76;68.67;101014.69;5098038;27;45408;-42
2023/04/25 05:59:32;;;;;;;;;16.67;13.67;;;;;10.77;68.58;101011.03;5098315;27;45467;-44
2023/04/25 06:01:58;;;;;;;;;18.67;17.67;;;;;10.74;68.88;101017.47;5098343;27;45384;-45
2023/04/25 06:04:25;;;;;;;;;17.67;16.00;;;;;10.76;68.63;101015.53;5098103;27;45349;-43
2023/04/25 06:06:50;;;;;;;;;26.33;18.00;;;;;10.78;68.78;101018.88;5098118;27;45388;-44
2023/04/25 06:09:15;;;;;;;;;17.00;15.00;;;;;10.67;68.90;101003.91;5097764;27;45401;-42
2023/04/25 06:11:41;;;;;;;;;12.00;12.00;;;;;10.84;68.69;101020.16;5098339;27;45214;-42
2023/04/25 06:14:07;;;;;;;;;17.00;14.00;;;;;10.90;68.45;101019.56;5097604;27;46095;-42
2023/04/25 06:16:32;;;;;;;;;17.67;16.33;;;;;10.95;68.43;101030.63;5097966;27;45265;-44
2023/04/25 06:18:57;;;;;;;;;17.67;15.33;;;;;10.96;68.24;101025.19;5098044;27;45348;-44
2023/04/25 06:21:23;;;;;;;;;19.00;14.00;;;;;10.99;67.90;101034.69;5097778;27;45228;-45
2023/04/25 06:23:48;;;;;;;;;13.00;11.33;;;;;11.00;67.69;101025.72;5097512;27;45327;-41
2023/04/25 06:26:13;;;;;;;;;13.33;13.33;;;;;11.03;67.69;101024.59;5097415;27;50477;-42
2023/04/25 06:28:39;;;;;;;;;11.33;10.67;;;;;11.06;67.37;101025.16;5097805;27;45344;-41
2023/04/25 06:31:04;;;;;;;;;16.67;12.00;;;;;11.09;67.56;101034.69;5097792;27;45367;-42
2023/04/25 06:33:30;;;;;;;;;17.33;14.00;;;;;11.10;67.39;101023.03;5097540;27;46240;-40
2023/04/25 06:35:55;;;;;;;;;11.00;11.00;;;;;11.12;67.78;101031.72;5097756;27;45894;-42
2023/04/25 06:38:20;;;;;;;;;15.67;12.00;;;;;11.15;67.61;101031.44;5080055;27;45476;-46
2023/04/25 06:40:46;;;;;;;;;14.67;10.33;;;;;11.20;66.79;101035.34;5101552;27;45412;-42
2023/04/25 06:43:11;;;;;;;;;13.00;8.00;;;;;11.23;66.68;101032.41;5100858;27;45369;-41
2023/04/25 06:45:36;;;;;;;;;10.33;6.67;;;;;11.28;66.19;101020.47;5101179;27;45339;-44
2023/04/25 06:48:02;;;;;;;;;7.33;7.33;;;;;11.46;65.78;101040.91;5101611;27;45421;-46
2023/04/25 06:50:27;;;;;;;;;11.00;9.67;;;;;11.40;65.79;101008.66;5101491;27;45508;-44
2023/04/25 06:52:53;;;;;;;;;14.33;11.33;;;;;11.63;65.79;101041.97;5100992;27;46359;-45
2023/04/25 06:55:18;;;;;;;;;11.00;8.00;;;;;11.67;65.02;101054.00;5100892;27;45442;-45
2023/04/25 06:57:43;;;;;;;;;11.00;9.00;;;;;11.69;64.91;101046.69;5100165;27;45332;-42
2023/04/25 07:00:09;;;;;;;;;8.00;7.00;;;;;11.68;64.71;101053.00;5101140;27;45372;-44
2023/04/25 07:02:35;;;;;;;;;7.33;6.67;;;;;11.77;64.91;101064.63;5100816;27;46029;-45
2023/04/25 07:05:03;;;;;;;;;10.00;7.33;;;;;11.77;64.88;101061.13;5100798;27;45311;-41
2023/04/25 07:07:30;;;;;;;;;8.33;7.00;;;;;11.69;64.70;101062.69;5100834;27;45324;-44
2023/04/25 07:09:55;;;;;;;;;7.67;6.67;;;;;11.76;64.86;101070.09;5101023;27;45407;-45
2023/04/25 07:12:20;;;;;;;;;9.00;7.00;;;;;11.86;64.32;101066.44;5100690;27;45575;-43
2023/04/25 07:14:46;;;;;;;;;9.00;7.33;;;;;12.05;63.79;101073.50;5082384;27;45493;-45
2023/04/25 07:17:11;;;;;;;;;10.00;9.33;;;;;12.09;63.37;101069.53;5082583;27;45356;-44
2023/04/25 07:19:38;;;;;;;;;13.00;8.00;;;;;12.08;63.63;101086.53;5100776;27;45484;-45
2023/04/25 07:22:04;;;;;;;;;13.00;9.33;;;;;12.00;63.37;101078.44;5100513;27;46126;-46
2023/04/25 07:24:29;;;;;;;;;16.67;14.00;;;;;11.90;63.82;101078.47;5100212;27;45495;-42
2023/04/25 07:26:54;;;;;;;;;15.33;11.67;;;;;11.84;64.36;101083.53;5100512;27;45321;-43
2023/04/25 07:29:20;;;;;;;;;17.67;12.33;;;;;11.85;64.53;101086.09;5100887;27;45358;-44
2023/04/25 07:31:45;;;;;;;;;25.33;17.33;;;;;11.86;64.19;101098.41;5100403;27;45359;-46
2023/04/25 07:34:11;;;;;;;;;16.00;13.33;;;;;11.84;64.11;101104.88;5100345;27;45295;-42
2023/04/25 07:36:36;;;;;;;;;17.67;13.00;;;;;11.70;64.05;101092.84;5100375;27;45203;-45
2023/04/25 07:39:01;;;;;;;;;18.67;15.00;;;;;11.65;64.42;101097.75;5100332;27;45434;-41
2023/04/25 07:41:27;;;;;;;;;22.67;17.33;;;;;11.61;64.23;101105.19;5081760;27;47315;-41
2023/04/25 07:43:52;;;;;;;;;21.00;18.00;;;;;11.53;64.83;101126.41;5100012;27;45254;-41
2023/04/25 07:46:17;;;;;;;;;21.33;16.67;;;;;11.45;64.51;101119.13;5100262;27;45608;-42
2023/04/25 07:48:43;;;;;;;;;24.33;20.00;;;;;11.38;64.85;101118.03;5100188;27;45544;-40
2023/04/25 07:51:08;;;;;;;;;24.00;16.33;;;;;11.35;65.20;101131.63;5099856;27;46036;-40
2023/04/25 07:53:34;;;;;;;;;25.00;17.00;;;;;11.27;64.74;101125.31;5099921;27;47749;-42
2023/04/25 07:56:00;;;;;;;;;22.00;18.67;;;;;11.29;64.56;101140.16;5100127;27;45365;-41
2023/04/25 07:58:25;;;;;;;;;16.67;16.67;;;;;11.35;64.29;101141.44;5100413;27;45266;-42
2023/04/25 08:00:50;;;;;;;;;19.67;17.33;;;;;11.47;64.34;101149.13;5099932;27;46165;-41
2023/04/25 08:03:16;;;;;;;;;29.00;19.33;;;;;11.57;63.36;101138.44;5099887;27;45374;-42
2023/04/25 08:05:41;;;;;;;;;27.00;16.67;;;;;11.69;63.34;101153.28;5100323;27;45359;-40
2023/04/25 08:08:07;;;;;;;;;32.33;20.67;;;;;11.79;62.57;101153.25;5099903;27;45424;-43
2023/04/25 08:10:33;;;;;;;;;19.33;17.00;;;;;11.87;62.34;101156.06;5098318;27;45377;-43
2023/04/25 08:12:58;;;;;;;;;19.00;19.00;;;;;11.88;61.88;101160.44;5099811;27;45412;-42
2023/04/25 08:15:25;;;;;;;;;17.00;14.67;;;;;12.10;61.41;101155.75;5099875;27;45508;-41
2023/04/25 08:17:50;;;;;;;;;16.67;14.33;;;;;12.51;59.91;101167.72;5081754;27;45426;-41
2023/04/25 08:20:16;;;;;;;;;20.33;18.00;;;;;14.51;56.89;101178.72;5099494;27;45980;-43
2023/04/25 08:22:41;;;;;;;;;22.00;17.33;;;;;16.79;50.73;101176.88;5099585;27;45267;-44
2023/04/25 08:25:07;;;;;;;;;21.67;16.00;;;;;17.98;48.70;101167.34;5099489;27;45685;-41
2023/04/25 08:27:32;;;;;;;;;15.67;13.67;;;;;18.74;46.30;101173.34;5099851;27;45400;-41
2023/04/25 08:29:58;;;;;;;;;15.33;15.33;;;;;20.42;42.79;101170.78;5099682;27;45518;-41
2023/04/25 08:32:24;;;;;;;;;14.33;12.00;;;;;21.01;42.00;101169.34;5099429;27;45282;-43
2023/04/25 08:34:50;;;;;;;;;18.33;14.33;;;;;19.70;42.62;101172.00;5099763;27;45292;-40
2023/04/25 08:37:16;;;;;;;;;9.33;8.00;;;;;18.58;44.97;101185.13;5099723;27;45383;-42
2023/04/25 08:39:41;;;;;;;;;14.00;12.00;;;;;17.76;45.39;101185.25;5098904;27;46282;-42
2023/04/25 08:42:10;;;;;;;;;12.33;12.33;;;;;17.01;46.46;101189.50;5099305;27;45259;-41
2023/04/25 08:44:36;;;;;;;;;13.00;12.00;;;;;17.52;46.33;101192.47;5099163;27;45376;-42
2023/04/25 08:47:05;;;;;;;;;13.33;12.33;;;;;19.05;43.43;101194.66;5080003;27;45417;-42
2023/04/25 08:49:34;;;;;;;;;20.67;17.00;;;;;18.40;43.88;101182.84;5097919;27;45359;-42
2023/04/25 08:52:06;;;;;;;;;15.33;10.67;;;;;18.43;44.91;101195.94;5080076;27;45461;-41
2023/04/25 08:54:32;;;;;;;;;13.00;12.33;;;;;18.00;44.65;101203.00;5099099;27;45480;-43
2023/04/25 08:57:04;;;;;;;;;14.00;10.67;;;;;17.50;44.86;101205.28;5099235;27;45446;-42
2023/04/25 08:59:30;;;;;;;;;13.67;10.67;;;;;16.90;45.25;101192.59;5098660;27;46202;-41
2023/04/25 09:01:56;;;;;;;;;13.00;11.67;;;;;16.35;46.82;101210.47;5097983;27;45402;-41
2023/04/25 09:04:22;;;;;;;;;11.67;10.67;;;;;15.71;48.52;101214.94;5099055;27;45374;-41
2023/04/25 09:06:47;;;;;;;;;12.33;9.67;;;;;15.20;49.11;101216.88;5099053;27;45353;-42
2023/04/25 09:09:13;;;;;;;;;17.67;10.00;;;;;14.93;49.93;101220.69;5098571;27;45515;-42
2023/04/25 09:11:40;;;;;;;;;21.67;13.00;;;;;16.34;47.80;101224.03;5098613;27;45380;-42
2023/04/25 09:14:22;;;;;;;;;11.00;10.00;;;;;16.81;47.61;101234.81;5098892;27;45261;-41
2023/04/25 09:16:57;;;;;;;;;13.00;11.00;;;;;17.94;45.31;101240.38;5099199;27;45446;-42
2023/04/25 09:19:25;;;;;;;;;12.67;12.00;;;;;17.95;44.51;101235.88;5098437;27;46966;-41
2023/04/25 09:21:53;;;;;;;;;17.00;11.33;;;;;17.52;45.46;101245.44;5098492;27;45204;-42
2023/04/25 09:24:45;;;;;;;;;15.00;9.67;;;;;16.92;46.11;101247.84;5098614;27;45487;-40
2023/04/25 09:27:13;;;;;;;;;9.00;6.67;;;;;16.52;46.88;101256.03;5098935;27;45373;-43
2023/04/25 09:29:40;;;;;;;;;11.33;8.33;;;;;16.29;47.35;101262.13;5098419;27;47018;-41
2023/04/25 09:32:16;;;;;;;;;12.00;9.67;;;;;15.90;47.58;101268.25;5098188;27;45468;-40
2023/04/25 09:34:49;;;;;;;;;11.33;10.33;;;;;15.49;49.10;101264.69;5098656;27;45419;-42
2023/04/25 09:37:28;;;;;;;;;11.00;9.00;;;;;15.09;49.60;101268.97;5098580;27;45386;-42
2023/04/25 09:40:00;;;;;;;;;7.33;7.00;;;;;14.82;50.51;101275.38;5098224;27;45351;-40
2023/04/25 09:42:28;;;;;;;;;11.00;9.00;;;;;14.68;50.85;101282.19;5098113;27;45514;-43
2023/04/25 09:44:55;;;;;;;;;10.33;6.00;;;;;14.79;50.80;101289.13;5098180;27;45444;-41
2023/04/25 09:47:23;;;;;;;;;10.33;8.33;;;;;14.93;50.57;101280.47;5114343;27;45607;-41
2023/04/25 09:49:51;;;;;;;;;12.33;8.00;;;;;14.82;50.52;101270.03;5097909;27;46506;-41
2023/04/25 09:52:18;;;;;;;;;14.00;10.00;;;;;14.77;50.47;101291.09;5098270;27;45473;-43
2023/04/25 09:54:45;;;;;;;;;9.67;9.33;;;;;14.61;50.32;101294.53;5098039;27;45278;-40
2023/04/25 09:57:16;;;;;;;;;12.67;8.33;;;;;14.47;51.01;101292.44;5098380;27;45400;-42
2023/04/25 09:59:52;;;;;;;;;8.67;8.67;;;;;14.27;51.56;101301.66;5097886;27;46347;-49
2023/04/25 10:02:22;;;;;;;;;9.33;9.00;;;;;14.08;51.66;101300.03;5098013;27;45436;-41
2023/04/25 10:04:52;;;;;;;;;15.00;10.67;;;;;13.92;51.78;101306.94;5098109;27;45429;-40
2023/04/25 10:07:19;;;;;;;;;15.00;9.67;;;;;13.91;51.67;101302.59;5079636;27;45412;-40
2023/04/25 10:09:48;;;;;;;;;3.00;3.00;;;;;14.00;52.22;101308.84;5097695;27;47198;-41
2023/04/25 10:12:13;;;;;;;;;16.67;9.00;;;;;14.11;51.71;101305.06;5097522;27;45416;-41
2023/04/25 10:14:40;;;;;;;;;12.67;9.00;;;;;14.32;50.98;101302.88;5098047;27;45323;-41
2023/04/25 10:17:05;;;;;;;;;11.00;9.33;;;;;15.12;50.16;101307.97;5098121;27;45590;-40
2023/04/25 10:19:32;;;;;;;;;16.33;10.00;;;;;15.49;48.51;101299.53;5097400;27;46919;-45
2023/04/25 10:22:06;;;;;;;;;10.67;9.00;;;;;15.53;47.74;101297.38;5079403;27;45415;-41
2023/04/25 10:24:32;;;;;;;;;13.33;8.67;;;;;15.44;47.89;101293.84;5097805;27;45325;-41
2023/04/25 10:26:58;;;;;;;;;15.00;9.00;;;;;15.27;48.46;101303.69;5097792;27;45286;-43
2023/04/25 10:29:27;;;;;;;;;10.67;10.33;;;;;15.19;48.58;101303.66;5097581;27;46262;-41
2023/04/25 10:31:53;;;;;;;;;9.33;6.33;;;;;15.09;48.45;101298.44;5097693;27;45225;-42
2023/04/25 10:34:23;;;;;;;;;13.67;10.00;;;;;14.90;49.14;101304.06;5097857;27;45390;-42
2023/04/25 10:36:53;;;;;;;;;11.00;9.33;;;;;14.63;49.71;101307.78;5098043;27;45254;-41
2023/04/25 10:39:24;;;;;;;;;13.33;8.00;;;;;14.28;50.18;101309.53;5097404;27;45362;-41
2023/04/25 10:41:55;;;;;;;;;18.67;11.67;;;;;13.95;50.90;101297.78;5096873;27;45297;-40
2023/04/25 10:44:21;;;;;;;;;9.00;8.33;;;;;13.82;51.21;101316.03;5097386;27;45341;-41
2023/04/25 10:46:46;;;;;;;;;14.00;10.00;;;;;13.69;51.93;101311.94;5097646;27;45378;-40
2023/04/25 10:49:30;;;;;;;;;11.00;8.00;;;;;13.67;52.18;101318.41;5097707;27;45925;-42
2023/04/25 10:52:15;;;;;;;;;9.67;9.67;;;;;15.07;51.16;101319.19;5097206;27;45352;-40
2023/04/25 10:54:43;;;;;;;;;9.33;7.00;;;;;18.59;43.54;101308.91;5097453;27;45487;-39
2023/04/25 10:57:29;;;;;;;;;10.67;9.00;;;;;18.49;43.74;101308.34;5097400;27;45532;-41
2023/04/25 11:00:10;;;;;;;;;7.67;6.67;;;;;17.88;43.48;101313.81;5097047;27;46645;-51
2023/04/25 11:02:42;;;;;;;;;5.33;5.33;;;;;17.16;44.67;101310.56;5097127;27;45464;-41
2023/04/25 11:05:09;;;;;;;;;7.33;7.00;;;;;16.66;45.01;101317.94;5097370;27;45467;-40
2023/04/25 11:07:51;;;;;;;;;8.00;5.67;;;;;16.11;45.52;101316.03;5097834;27;45368;-40
2023/04/25 11:10:17;;;;;;;;;10.00;6.67;;;;;15.78;45.73;101317.88;5096835;27;46531;-52
2023/04/25 11:12:43;;;;;;;;;6.33;5.00;;;;;15.48;46.05;101322.81;5097146;27;45257;-44
2023/04/25 11:15:08;;;;;;;;;7.00;6.67;;;;;15.28;46.54;101328.63;5097279;27;45347;-42